Time;durP1;ratioP1;P1;durP2;ratioP2;P2;SDS_P1;SDS_P2;PMS_P1;PMS_P2;Temp;Humidity;BMP_temperature;BMP_pressure;BME280_temperature;BME280_humidity;BME280_pressure;Samples;Min_cycle;Max_cycle;Signal;HPM_P1;HPM_P2
2022/09/22 00:02:18;;;;;;;;;;;7.90;99.90;;;;;;5081557;28;19931;-70
2022/09/22 00:04:45;;;;;;;;;;;7.80;99.90;;;;;;5082659;28;19925;-70
2022/09/22 00:07:12;;;;;;;;;;;7.80;99.90;;;;;;5081432;28;20402;-70
2022/09/22 00:09:39;;;;;;;;;;;7.80;99.90;;;;;;5082768;28;19924;-70
2022/09/22 00:12:06;;;;;;;;;;;7.70;99.90;;;;;;5078709;28;19932;-70
2022/09/22 00:14:33;;;;;;;;;;;7.70;99.90;;;;;;5077283;28;19932;-70
2022/09/22 00:17:01;;;;;;;;;;;7.60;99.90;;;;;;5079046;28;20028;-70
2022/09/22 00:19:29;;;;;;;;;;;7.50;99.90;;;;;;5074475;28;19925;-70
2022/09/22 00:21:55;;;;;;;;;;;7.50;99.90;;;;;;5082229;28;19924;-69
2022/09/22 00:24:24;;;;;;;;;;;7.50;99.90;;;;;;5078352;28;20054;-70
2022/09/22 00:26:55;;;;;;;;;;;7.50;99.90;;;;;;5089499;28;19954;-69
2022/09/22 00:29:22;;;;;;;;;;;7.50;99.90;;;;;;5078107;28;19924;-70
2022/09/22 00:31:49;;;;;;;;;;;7.60;99.90;;;;;;5081559;28;20280;-69
2022/09/22 00:34:17;;;;;;;;;;;7.70;99.90;;;;;;5085164;28;20302;-69
2022/09/22 00:36:43;;;;;;;;;;;7.70;99.90;;;;;;5082049;28;19935;-70
2022/09/22 00:39:10;;;;;;;;;;;7.70;99.90;;;;;;5078706;28;20022;-70
2022/09/22 00:41:40;;;;;;;;;;;7.80;99.90;;;;;;5077266;28;20390;-69
2022/09/22 00:44:31;;;;;;;;;;;7.80;99.90;;;;;;5073361;28;20315;-69
2022/09/22 00:47:00;;;;;;;;;;;7.70;99.90;;;;;;5053488;28;19931;-69
2022/09/22 00:49:31;;;;;;;;;;;7.70;99.90;;;;;;5076902;28;19924;-69
2022/09/22 00:51:58;;;;;;;;;;;7.60;99.90;;;;;;5087239;28;19930;-69
2022/09/22 00:54:24;;;;;;;;;;;7.60;99.90;;;;;;5077582;28;19934;-69
2022/09/22 00:56:56;;;;;;;;;;;7.60;99.90;;;;;;5083372;28;20019;-69
2022/09/22 00:59:25;;;;;;;;;;;7.60;99.90;;;;;;5078896;28;20031;-70
2022/09/22 01:01:52;;;;;;;;;;;7.60;99.90;;;;;;5076898;28;20432;-71
2022/09/22 01:04:18;;;;;;;;;;;7.60;99.90;;;;;;5078607;28;20298;-70
2022/09/22 01:06:45;;;;;;;;;;;7.50;99.90;;;;;;5079988;28;20486;-70
2022/09/22 01:09:12;;;;;;;;;;;7.50;99.90;;;;;;5079789;28;19924;-70
2022/09/22 01:11:39;;;;;;;;;;;7.50;99.90;;;;;;5087613;28;19935;-69
2022/09/22 01:14:12;;;;;;;;;;;7.50;99.90;;;;;;5081053;28;20486;-70
2022/09/22 01:16:45;;;;;;;;;;;7.60;99.90;;;;;;5088519;28;20384;-70
2022/09/22 01:19:27;;;;;;;;;;;7.50;99.90;;;;;;5075418;28;20026;-69
2022/09/22 01:21:58;;;;;;;;;;;7.30;99.90;;;;;;5079125;28;19946;-69
2022/09/22 01:24:45;;;;;;;;;;;7.20;99.90;;;;;;5079692;28;19932;-70
2022/09/22 01:27:30;;;;;;;;;;;7.10;99.90;;;;;;5069287;28;20273;-69
2022/09/22 01:30:18;;;;;;;;;;;7.10;99.90;;;;;;5075279;28;20026;-69
2022/09/22 01:32:49;;;;;;;;;;;7.20;99.90;;;;;;5084302;28;19924;-69
2022/09/22 01:35:19;;;;;;;;;;;7.20;99.90;;;;;;5075169;28;20356;-70
2022/09/22 01:37:50;;;;;;;;;;;7.20;99.90;;;;;;5074968;28;19924;-69
2022/09/22 01:40:19;;;;;;;;;;;7.10;99.90;;;;;;5081757;28;19928;-70
2022/09/22 01:42:49;;;;;;;;;;;7.00;99.90;;;;;;5077108;28;19932;-69
2022/09/22 01:45:17;;;;;;;;;;;7.00;99.90;;;;;;5082763;28;19930;-70
2022/09/22 01:47:48;;;;;;;;;;;6.90;99.90;;;;;;5077057;28;19943;-70
2022/09/22 01:50:17;;;;;;;;;;;6.90;99.90;;;;;;5079385;28;20454;-70
2022/09/22 01:52:44;;;;;;;;;;;7.00;99.90;;;;;;5082900;28;19928;-69
2022/09/22 01:55:13;;;;;;;;;;;7.10;99.90;;;;;;5083451;28;20350;-69
2022/09/22 01:57:43;;;;;;;;;;;7.10;99.90;;;;;;5074740;28;20374;-71
2022/09/22 02:00:10;;;;;;;;;;;7.00;99.90;;;;;;5075150;28;19924;-69
2022/09/22 02:02:38;;;;;;;;;;;7.10;99.90;;;;;;5073453;28;19928;-69
2022/09/22 02:05:08;;;;;;;;;;;7.00;99.90;;;;;;5082875;28;20473;-69
2022/09/22 02:07:37;;;;;;;;;;;7.00;99.90;;;;;;5080869;28;20294;-69
2022/09/22 02:10:06;;;;;;;;;;;6.90;99.90;;;;;;5086958;28;19930;-69
2022/09/22 02:12:34;;;;;;;;;;;6.80;99.90;;;;;;5076907;28;20028;-69
2022/09/22 02:15:01;;;;;;;;;;;6.80;99.90;;;;;;5078379;28;19924;-69
2022/09/22 02:17:27;;;;;;;;;;;6.80;99.90;;;;;;5079038;28;19930;-69
2022/09/22 02:19:54;;;;;;;;;;;6.70;99.90;;;;;;5074458;28;19924;-69
2022/09/22 02:22:22;;;;;;;;;;;6.70;99.90;;;;;;5078894;28;19924;-69
2022/09/22 02:24:49;;;;;;;;;;;6.70;99.90;;;;;;5080784;28;20020;-70
2022/09/22 02:27:19;;;;;;;;;;;6.70;99.90;;;;;;5086652;28;20102;-69
2022/09/22 02:29:48;;;;;;;;;;;6.70;99.90;;;;;;5075357;28;20591;-69
2022/09/22 02:32:15;;;;;;;;;;;6.70;99.90;;;;;;5075642;28;20371;-69
2022/09/22 02:34:42;;;;;;;;;;;6.70;99.90;;;;;;5082823;28;19932;-69
2022/09/22 02:37:14;;;;;;;;;;;6.60;99.90;;;;;;5079996;28;19924;-69
2022/09/22 02:39:47;;;;;;;;;;;6.60;99.90;;;;;;5078239;28;20045;-69
2022/09/22 02:42:24;;;;;;;;;;;6.50;99.90;;;;;;5080946;28;19928;-69
2022/09/22 02:44:53;;;;;;;;;;;6.50;99.90;;;;;;5080135;28;19947;-68
2022/09/22 02:47:24;;;;;;;;;;;6.50;99.90;;;;;;5078902;28;20014;-68
2022/09/22 02:49:52;;;;;;;;;;;6.60;99.90;;;;;;5080088;28;19924;-69
2022/09/22 02:52:22;;;;;;;;;;;6.60;99.90;;;;;;5083401;28;20018;-69
2022/09/22 02:54:50;;;;;;;;;;;6.70;99.90;;;;;;5082130;28;19924;-69
2022/09/22 02:57:17;;;;;;;;;;;6.70;99.90;;;;;;5074611;28;20298;-69
2022/09/22 02:59:43;;;;;;;;;;;6.60;99.90;;;;;;5075244;28;20271;-69
2022/09/22 03:02:10;;;;;;;;;;;6.60;99.90;;;;;;5081785;28;20429;-69
2022/09/22 03:04:37;;;;;;;;;;;6.60;99.90;;;;;;5079118;28;20435;-69
2022/09/22 03:07:05;;;;;;;;;;;6.50;99.90;;;;;;5076156;28;20411;-69
2022/09/22 03:09:32;;;;;;;;;;;6.50;99.90;;;;;;5075942;28;19925;-69
2022/09/22 03:12:00;;;;;;;;;;;6.40;99.90;;;;;;5078032;28;19924;-69
2022/09/22 03:14:27;;;;;;;;;;;6.40;99.90;;;;;;5080761;28;19924;-69
2022/09/22 03:16:54;;;;;;;;;;;6.40;99.90;;;;;;5076528;28;19924;-69
2022/09/22 03:19:20;;;;;;;;;;;6.50;99.90;;;;;;5073847;28;19928;-69
2022/09/22 03:21:47;;;;;;;;;;;6.50;99.90;;;;;;5078472;28;20003;-69
2022/09/22 03:24:13;;;;;;;;;;;6.40;99.90;;;;;;5077075;28;19924;-69
2022/09/22 03:26:40;;;;;;;;;;;6.40;99.90;;;;;;5078236;28;20015;-69
2022/09/22 03:29:08;;;;;;;;;;;6.40;99.90;;;;;;5077093;28;19932;-69
2022/09/22 03:31:35;;;;;;;;;;;6.40;99.90;;;;;;5074197;28;20019;-69
2022/09/22 03:34:01;;;;;;;;;;;6.40;99.90;;;;;;5082384;28;19932;-69
2022/09/22 03:36:28;;;;;;;;;;;6.30;99.90;;;;;;5079068;28;19933;-68
2022/09/22 03:38:55;;;;;;;;;;;6.30;99.90;;;;;;5078408;28;19932;-68
2022/09/22 03:41:21;;;;;;;;;;;6.30;99.90;;;;;;5077780;28;20398;-69
2022/09/22 03:43:48;;;;;;;;;;;6.30;99.90;;;;;;5079863;28;19924;-69
2022/09/22 03:46:16;;;;;;;;;;;6.30;99.90;;;;;;5080724;28;19928;-69
2022/09/22 03:48:43;;;;;;;;;;;6.20;99.90;;;;;;5080975;28;19924;-69
2022/09/22 03:51:09;;;;;;;;;;;6.20;99.90;;;;;;5078347;28;19924;-69
2022/09/22 03:53:36;;;;;;;;;;;6.20;99.90;;;;;;5082834;28;19924;-69
2022/09/22 03:56:07;;;;;;;;;;;6.30;99.90;;;;;;5079424;28;19936;-69
2022/09/22 03:58:33;;;;;;;;;;;6.40;99.90;;;;;;5082882;28;19975;-70
2022/09/22 04:01:00;;;;;;;;;;;6.40;99.90;;;;;;5083793;28;20445;-72
2022/09/22 04:03:28;;;;;;;;;;;6.40;99.90;;;;;;5083422;28;19928;-70
2022/09/22 04:05:55;;;;;;;;;;;6.30;99.90;;;;;;5081988;28;20468;-70
2022/09/22 04:08:22;;;;;;;;;;;6.30;99.90;;;;;;5084914;28;19924;-70
2022/09/22 04:10:49;;;;;;;;;;;6.10;99.90;;;;;;5083867;28;19928;-70
2022/09/22 04:13:15;;;;;;;;;;;6.10;99.90;;;;;;5086948;28;19931;-69
2022/09/22 04:15:42;;;;;;;;;;;6.10;99.90;;;;;;5077233;28;19934;-69
2022/09/22 04:18:09;;;;;;;;;;;6.10;99.90;;;;;;5081782;28;19932;-70
2022/09/22 04:20:38;;;;;;;;;;;6.10;99.90;;;;;;5077162;28;20018;-70
2022/09/22 04:23:05;;;;;;;;;;;6.20;99.90;;;;;;5073468;28;20053;-69
2022/09/22 04:25:31;;;;;;;;;;;6.20;99.90;;;;;;5077063;28;19928;-69
2022/09/22 04:27:58;;;;;;;;;;;6.20;99.90;;;;;;5076836;28;19925;-70
2022/09/22 04:30:25;;;;;;;;;;;6.10;99.90;;;;;;5077431;28;19939;-69
2022/09/22 04:32:52;;;;;;;;;;;6.10;99.90;;;;;;5078019;28;19924;-69
2022/09/22 04:35:18;;;;;;;;;;;6.10;99.90;;;;;;5076388;28;20701;-70
2022/09/22 04:37:46;;;;;;;;;;;6.10;99.90;;;;;;5076077;28;19928;-70
2022/09/22 04:40:13;;;;;;;;;;;6.00;99.90;;;;;;5079521;28;20239;-71
2022/09/22 04:42:40;;;;;;;;;;;6.10;99.90;;;;;;5076451;28;19924;-71
2022/09/22 04:45:07;;;;;;;;;;;6.10;99.90;;;;;;5078674;28;19932;-71
2022/09/22 04:47:34;;;;;;;;;;;6.00;99.90;;;;;;5078442;28;20655;-71
2022/09/22 04:50:00;;;;;;;;;;;6.00;99.90;;;;;;5078989;28;19931;-71
2022/09/22 04:52:27;;;;;;;;;;;6.00;99.90;;;;;;5074059;28;19935;-71
2022/09/22 04:54:55;;;;;;;;;;;6.00;99.90;;;;;;5077626;28;20011;-71
2022/09/22 04:57:21;;;;;;;;;;;6.10;99.90;;;;;;5075206;28;20309;-72
2022/09/22 04:59:48;;;;;;;;;;;6.10;99.90;;;;;;5080525;28;19935;-71
2022/09/22 05:02:15;;;;;;;;;;;6.10;99.90;;;;;;5074043;28;20457;-71
2022/09/22 05:04:42;;;;;;;;;;;6.10;99.90;;;;;;5072649;28;19934;-71
2022/09/22 05:07:09;;;;;;;;;;;6.10;99.90;;;;;;5080818;28;19932;-78
2022/09/22 05:09:35;;;;;;;;;;;6.00;99.90;;;;;;5076028;28;19934;-76
2022/09/22 05:12:04;;;;;;;;;;;5.90;99.90;;;;;;5080845;28;19924;-76
2022/09/22 05:14:32;;;;;;;;;;;5.90;99.90;;;;;;5076862;28;19940;-76
2022/09/22 05:16:59;;;;;;;;;;;6.00;99.90;;;;;;5081631;28;19969;-76
2022/09/22 05:19:26;;;;;;;;;;;6.10;99.90;;;;;;5077775;28;19924;-76
2022/09/22 05:21:53;;;;;;;;;;;6.00;99.90;;;;;;5081297;28;20296;-78
2022/09/22 05:24:19;;;;;;;;;;;5.90;99.90;;;;;;5082638;28;19932;-76
2022/09/22 05:26:46;;;;;;;;;;;5.90;99.90;;;;;;5074164;28;20035;-77
2022/09/22 05:29:14;;;;;;;;;;;5.90;99.90;;;;;;5079775;28;20413;-77
2022/09/22 05:31:41;;;;;;;;;;;5.80;99.90;;;;;;5078286;28;20271;-77
2022/09/22 05:34:08;;;;;;;;;;;5.80;99.90;;;;;;5078372;28;19952;-76
2022/09/22 05:36:34;;;;;;;;;;;5.90;99.90;;;;;;5075575;28;20435;-77
2022/09/22 05:39:01;;;;;;;;;;;5.90;99.90;;;;;;5077142;28;19925;-76
2022/09/22 05:41:28;;;;;;;;;;;5.90;99.90;;;;;;5079888;28;20007;-76
2022/09/22 05:43:54;;;;;;;;;;;6.00;99.90;;;;;;5078130;28;19928;-76
2022/09/22 05:46:22;;;;;;;;;;;6.00;99.90;;;;;;5079465;28;20011;-77
2022/09/22 05:48:49;;;;;;;;;;;6.10;99.90;;;;;;5083637;28;20010;-76
2022/09/22 05:51:16;;;;;;;;;;;6.10;99.90;;;;;;5078201;28;19924;-77
2022/09/22 05:53:43;;;;;;;;;;;6.10;99.90;;;;;;5088487;28;19924;-78
2022/09/22 05:56:09;;;;;;;;;;;6.20;99.90;;;;;;5084109;28;19946;-78
2022/09/22 05:58:36;;;;;;;;;;;6.20;99.90;;;;;;5079610;28;19928;-79
2022/09/22 06:01:03;;;;;;;;;;;6.20;99.90;;;;;;5079503;28;19924;-77
2022/09/22 06:03:31;;;;;;;;;;;6.20;99.90;;;;;;5086162;28;19931;-77
2022/09/22 06:05:58;;;;;;;;;;;6.20;99.90;;;;;;5086360;28;19931;-77
2022/09/22 06:08:24;;;;;;;;;;;6.30;99.90;;;;;;5089641;28;19931;-77
2022/09/22 06:10:51;;;;;;;;;;;6.30;99.90;;;;;;5092279;28;19940;-79
2022/09/22 06:13:18;;;;;;;;;;;6.40;99.90;;;;;;5088043;28;19924;-77
2022/09/22 06:15:45;;;;;;;;;;;6.60;99.90;;;;;;5085455;28;19928;-77
2022/09/22 06:18:12;;;;;;;;;;;6.70;99.90;;;;;;5089306;28;20337;-77
2022/09/22 06:20:40;;;;;;;;;;;6.80;99.90;;;;;;5085082;28;19928;-77
2022/09/22 06:23:07;;;;;;;;;;;6.90;99.90;;;;;;5092583;28;19977;-85
2022/09/22 06:25:34;;;;;;;;;;;6.90;99.90;;;;;;5089237;28;19935;-84
2022/09/22 06:28:03;;;;;;;;;;;7.00;99.90;;;;;;5083432;28;20237;-86
2022/09/22 06:30:30;;;;;;;;;;;7.10;99.90;;;;;;5085115;28;19925;-77
2022/09/22 06:32:57;;;;;;;;;;;7.20;99.90;;;;;;5090564;28;19924;-77
2022/09/22 06:35:24;;;;;;;;;;;7.30;99.90;;;;;;5076121;28;20435;-78
2022/09/22 06:37:56;;;;;;;;;;;7.30;99.90;;;;;;5082169;28;19983;-78
2022/09/22 06:40:23;;;;;;;;;;;7.30;99.90;;;;;;5084351;28;19924;-77
2022/09/22 06:42:50;;;;;;;;;;;7.30;99.90;;;;;;5079071;28;19932;-78
2022/09/22 06:45:17;;;;;;;;;;;7.40;99.90;;;;;;5077668;28;19930;-77
2022/09/22 06:47:44;;;;;;;;;;;7.50;99.90;;;;;;5078941;28;19925;-77
2022/09/22 06:50:10;;;;;;;;;;;7.40;99.90;;;;;;5076250;28;19924;-78
2022/09/22 06:52:37;;;;;;;;;;;7.50;99.90;;;;;;5081270;28;20382;-78
2022/09/22 06:55:06;;;;;;;;;;;7.60;99.90;;;;;;5085112;28;19924;-80
2022/09/22 06:57:32;;;;;;;;;;;7.60;99.90;;;;;;5075168;28;19936;-79
2022/09/22 07:00:00;;;;;;;;;;;7.70;99.90;;;;;;5086951;28;20331;-78
2022/09/22 07:02:28;;;;;;;;;;;7.80;99.90;;;;;;5079296;28;20397;-78
2022/09/22 07:04:57;;;;;;;;;;;7.90;99.90;;;;;;5080133;28;19931;-78
2022/09/22 07:07:25;;;;;;;;;;;8.00;99.90;;;;;;5083310;28;19931;-77
2022/09/22 07:09:52;;;;;;;;;;;8.00;99.90;;;;;;5085945;28;19924;-78
2022/09/22 07:12:21;;;;;;;;;;;8.20;99.90;;;;;;5075493;28;19959;-78
2022/09/22 07:14:50;;;;;;;;;;;8.20;99.90;;;;;;5063188;28;21281;-79
2022/09/22 07:17:16;;;;;;;;;;;8.30;99.90;;;;;;5072469;28;19928;-79
2022/09/22 07:19:45;;;;;;;;;;;8.50;99.90;;;;;;5077411;28;19942;-79
2022/09/22 07:22:13;;;;;;;;;;;8.60;99.90;;;;;;5088654;28;19924;-77
2022/09/22 07:24:40;;;;;;;;;;;8.70;99.90;;;;;;5085239;28;19924;-79
2022/09/22 07:27:07;;;;;;;;;;;8.90;99.90;;;;;;5074947;28;19929;-80
2022/09/22 07:29:35;;;;;;;;;;;9.50;99.90;;;;;;5079648;28;20023;-79
2022/09/22 07:32:02;;;;;;;;;;;11.80;99.90;;;;;;5084480;28;19931;-75
2022/09/22 07:34:29;;;;;;;;;;;14.00;99.90;;;;;;5079589;28;19924;-78
2022/09/22 07:36:56;;;;;;;;;;;15.70;99.90;;;;;;5079911;28;19951;-75
2022/09/22 07:39:24;;;;;;;;;;;16.30;99.90;;;;;;5081745;28;19935;-75
2022/09/22 07:41:50;;;;;;;;;;;17.20;99.60;;;;;;5079450;28;19978;-76
2022/09/22 07:47:03;;;;;;;;;;;16.30;97.60;;;;;;5077831;28;19931;-73
2022/09/22 07:49:30;;;;;;;;;;;16.80;95.80;;;;;;5086019;28;19931;-75
2022/09/22 07:51:57;;;;;;;;;;;18.40;93.40;;;;;;5080304;28;19924;-72
2022/09/22 07:54:24;;;;;;;;;;;18.10;91.80;;;;;;5081660;28;20395;-71
2022/09/22 07:56:57;;;;;;;;;;;17.70;92.90;;;;;;5073364;28;20023;-71
2022/09/22 07:59:24;;;;;;;;;;;18.10;93.00;;;;;;5076327;28;19995;-71
2022/09/22 08:01:52;;;;;;;;;;;19.90;91.30;;;;;;5083620;28;19945;-72
2022/09/22 08:04:22;;;;;;;;;;;20.50;85.20;;;;;;5080513;28;19924;-72
2022/09/22 08:06:54;;;;;;;;;;;21.90;70.40;;;;;;5072040;28;20450;-72
2022/09/22 08:09:21;;;;;;;;;;;22.30;79.90;;;;;;5085770;28;20006;-71
2022/09/22 08:11:48;;;;;;;;;;;;;;;;;;5075033;28;19932;-71
2022/09/22 08:14:17;;;;;;;;;;;23.20;53.80;;;;;;5077650;28;19927;-72
2022/09/22 08:16:44;;;;;;;;;;;23.40;51.00;;;;;;5082686;28;19997;-72
2022/09/22 08:19:12;;;;;;;;;;;24.20;48.80;;;;;;5071017;28;19933;-73
2022/09/22 08:21:41;;;;;;;;;;;24.40;46.10;;;;;;5075835;28;20004;-73
2022/09/22 08:24:08;;;;;;;;;;;24.60;44.40;;;;;;5080492;28;19924;-72
2022/09/22 08:26:36;;;;;;;;;;;24.00;41.80;;;;;;5081229;28;20375;-73
2022/09/22 08:29:04;;;;;;;;;;;23.90;43.90;;;;;;5074715;28;20193;-72
2022/09/22 08:31:31;;;;;;;;;;;23.70;43.40;;;;;;5080782;28;19928;-72
2022/09/22 08:33:58;;;;;;;;;;;24.40;41.50;;;;;;5078506;28;20007;-72
2022/09/22 08:36:26;;;;;;;;;;;24.10;41.00;;;;;;5077002;28;19932;-73
2022/09/22 08:38:54;;;;;;;;;;;24.40;41.00;;;;;;5079780;28;20336;-72
2022/09/22 08:41:25;;;;;;;;;;;24.80;40.00;;;;;;5076668;28;19925;-73
2022/09/22 08:43:54;;;;;;;;;;;24.70;39.00;;;;;;5069824;28;19925;-73
2022/09/22 08:46:21;;;;;;;;;;;;;;;;;;5073506;28;19981;-73
2022/09/22 08:51:54;;;;;;;;;;;24.60;39.00;;;;;;5075732;28;22653;-72
2022/09/22 08:54:24;;;;;;;;;;;24.40;38.50;;;;;;5078781;28;20578;-72
2022/09/22 08:56:56;;;;;;;;;;;25.00;38.40;;;;;;5073348;28;20015;-72
2022/09/22 08:59:25;;;;;;;;;;;25.60;37.30;;;;;;5072701;28;20397;-72
2022/09/22 09:02:06;;;;;;;;;;;25.80;35.40;;;;;;5073161;28;20019;-73
2022/09/22 09:04:44;;;;;;;;;;;26.10;34.40;;;;;;5081530;28;19930;-73
2022/09/22 09:07:14;;;;;;;;;;;25.90;33.90;;;;;;5072666;28;20007;-72
2022/09/22 09:09:47;;;;;;;;;;;25.90;33.20;;;;;;5075507;28;20007;-73
2022/09/22 09:12:23;;;;;;;;;;;25.90;33.70;;;;;;5087283;28;20004;-71
2022/09/22 09:15:04;;;;;;;;;;;26.30;33.10;;;;;;5085306;28;19930;-72
2022/09/22 09:17:34;;;;;;;;;;;26.30;31.70;;;;;;5061326;28;19931;-72
2022/09/22 09:20:03;;;;;;;;;;;26.30;30.60;;;;;;5077058;28;19925;-71
2022/09/22 09:22:31;;;;;;;;;;;25.80;30.90;;;;;;5071610;28;19924;-71
2022/09/22 09:25:03;;;;;;;;;;;25.30;31.50;;;;;;5088220;28;19924;-74
2022/09/22 09:27:33;;;;;;;;;;;25.60;31.40;;;;;;5090335;28;19924;-71
2022/09/22 09:30:03;;;;;;;;;;;25.70;30.90;;;;;;5075355;28;19931;-73
2022/09/22 09:32:36;;;;;;;;;;;25.60;30.90;;;;;;5075646;28;20375;-73
2022/09/22 09:35:02;;;;;;;;;;;25.00;32.00;;;;;;5080859;28;19928;-73
2022/09/22 09:37:30;;;;;;;;;;;25.40;31.30;;;;;;5077464;28;19924;-73
2022/09/22 09:40:00;;;;;;;;;;;25.90;29.40;;;;;;5074098;28;19924;-73
2022/09/22 09:42:32;;;;;;;;;;;25.10;28.40;;;;;;5085078;28;19954;-74
2022/09/22 09:45:01;;;;;;;;;;;25.10;29.20;;;;;;5081485;28;19924;-74
2022/09/22 09:47:35;;;;;;;;;;;25.40;29.50;;;;;;5078191;28;20433;-73
2022/09/22 09:50:02;;;;;;;;;;;25.60;27.10;;;;;;5082023;28;19927;-73
2022/09/22 09:52:29;;;;;;;;;;;25.80;27.30;;;;;;5085813;28;19924;-73
2022/09/22 09:54:56;;;;;;;;;;;25.40;27.60;;;;;;5085944;28;20375;-74
2022/09/22 09:57:23;;;;;;;;;;;25.30;27.90;;;;;;5072214;28;19924;-75
2022/09/22 10:03:02;;;;;;;;;;;24.80;26.30;;;;;;5090731;28;20024;-74
2022/09/22 10:05:31;;;;;;;;;;;23.60;27.10;;;;;;5088059;28;20747;-75
2022/09/22 10:07:58;;;;;;;;;;;21.90;29.40;;;;;;5071098;28;19974;-74
2022/09/22 10:10:31;;;;;;;;;;;20.70;30.60;;;;;;5081736;28;19924;-72
2022/09/22 10:13:15;;;;;;;;;;;19.90;33.00;;;;;;5086887;28;20309;-71
2022/09/22 10:15:42;;;;;;;;;;;19.30;34.50;;;;;;5073575;28;19925;-71
2022/09/22 10:18:28;;;;;;;;;;;18.80;32.80;;;;;;5070992;28;19932;-72
2022/09/22 10:21:02;;;;;;;;;;;18.80;34.00;;;;;;5084076;28;19932;-72
2022/09/22 10:23:31;;;;;;;;;;;18.90;36.20;;;;;;5079290;28;19925;-72
2022/09/22 10:26:12;;;;;;;;;;;19.00;35.00;;;;;;5080424;28;19931;-72
2022/09/22 10:28:39;;;;;;;;;;;19.10;35.00;;;;;;5071549;28;19926;-73
2022/09/22 10:31:06;;;;;;;;;;;18.90;33.00;;;;;;5075233;28;20035;-70
2022/09/22 10:33:34;;;;;;;;;;;19.00;33.30;;;;;;5078176;28;20026;-68
2022/09/22 10:36:04;;;;;;;;;;;19.10;33.50;;;;;;5075050;28;19930;-70
2022/09/22 10:38:32;;;;;;;;;;;19.10;33.80;;;;;;5071363;28;19925;-71
2022/09/22 10:41:06;;;;;;;;;;;19.10;34.40;;;;;;5071643;28;20379;-71
2022/09/22 10:43:39;;;;;;;;;;;19.00;34.50;;;;;;5073293;28;19928;-72
2022/09/22 10:46:27;;;;;;;;;;;18.80;31.70;;;;;;5077950;28;19924;-71
2022/09/22 10:48:59;;;;;;;;;;;18.80;32.90;;;;;;5071938;28;19940;-70
2022/09/22 10:51:35;;;;;;;;;;;18.90;31.90;;;;;;5079753;28;19930;-70
2022/09/22 10:54:08;;;;;;;;;;;18.90;32.50;;;;;;5081910;28;19924;-70
2022/09/22 10:56:37;;;;;;;;;;;18.90;32.40;;;;;;5071393;28;19924;-70
2022/09/22 10:59:10;;;;;;;;;;;19.00;32.20;;;;;;5071032;28;19924;-71
2022/09/22 11:01:41;;;;;;;;;;;19.00;32.60;;;;;;5077944;28;20392;-71
2022/09/22 11:04:22;;;;;;;;;;;19.00;30.50;;;;;;5087020;28;20010;-71
2022/09/22 11:12:36;;;;;;;;;;;19.00;30.20;;;;;;5085339;28;19932;-71
2022/09/22 11:15:08;;;;;;;;;;;19.00;29.60;;;;;;5080660;28;20310;-71
2022/09/22 11:17:45;;;;;;;;;;;18.90;30.20;;;;;;5082845;28;19964;-73
2022/09/22 11:20:21;;;;;;;;;;;19.20;30.40;;;;;;5076212;28;19925;-71
2022/09/22 11:23:12;;;;;;;;;;;19.20;30.80;;;;;;5072311;28;19936;-72
2022/09/22 11:25:49;;;;;;;;;;;19.00;31.30;;;;;;4978733;28;20009;-72
2022/09/22 11:28:23;;;;;;;;;;;19.10;31.90;;;;;;5085066;28;19946;-73
2022/09/22 11:30:50;;;;;;;;;;;19.00;31.30;;;;;;5079685;28;19931;-71
2022/09/22 11:33:35;;;;;;;;;;;19.10;30.80;;;;;;5077437;28;20008;-72
2022/09/22 11:36:07;;;;;;;;;;;19.20;31.40;;;;;;5077005;28;20399;-72
2022/09/22 11:38:43;;;;;;;;;;;19.10;31.40;;;;;;5082310;28;19924;-71
2022/09/22 11:41:24;;;;;;;;;;;19.30;30.80;;;;;;5091418;28;19928;-73
2022/09/22 11:43:59;;;;;;;;;;;19.20;31.60;;;;;;5091089;28;19931;-72
2022/09/22 11:46:31;;;;;;;;;;;19.40;31.00;;;;;;5085735;28;20016;-73
2022/09/22 11:49:06;;;;;;;;;;;19.50;31.20;;;;;;5090236;28;20007;-72
2022/09/22 11:51:36;;;;;;;;;;;19.60;30.50;;;;;;5075486;28;19939;-72
2022/09/22 11:54:22;;;;;;;;;;;19.50;30.50;;;;;;5085383;28;20004;-75
2022/09/22 11:56:51;;;;;;;;;;;19.30;30.50;;;;;;5086203;28;19932;-75
2022/09/22 11:59:27;;;;;;;;;;;19.30;31.40;;;;;;5076157;28;19931;-72
2022/09/22 12:01:55;;;;;;;;;;;19.00;32.70;;;;;;5076821;28;19930;-71
2022/09/22 12:04:25;;;;;;;;;;;19.20;32.10;;;;;;5081530;28;19963;-72
2022/09/22 12:06:55;;;;;;;;;;;19.20;31.20;;;;;;5087503;28;19932;-72
2022/09/22 12:09:29;;;;;;;;;;;19.30;30.60;;;;;;5078946;28;20362;-72
2022/09/22 12:11:58;;;;;;;;;;;19.50;30.90;;;;;;5089475;28;20379;-72
2022/09/22 12:14:26;;;;;;;;;;;19.60;30.70;;;;;;5083425;28;19932;-74
2022/09/22 12:16:57;;;;;;;;;;;19.70;31.10;;;;;;5081020;28;19924;-75
2022/09/22 12:19:29;;;;;;;;;;;19.70;30.50;;;;;;5089148;28;19924;-72
2022/09/22 12:21:57;;;;;;;;;;;19.60;30.40;;;;;;5086751;28;19931;-80
2022/09/22 12:24:24;;;;;;;;;;;19.80;30.00;;;;;;5080114;28;19924;-79
2022/09/22 12:26:51;;;;;;;;;;;19.70;29.50;;;;;;5086237;28;19940;-78
2022/09/22 12:29:23;;;;;;;;;;;19.80;30.00;;;;;;5078984;28;19967;-77
2022/09/22 12:31:51;;;;;;;;;;;19.90;30.20;;;;;;5084817;28;20020;-78
2022/09/22 12:34:19;;;;;;;;;;;19.90;29.40;;;;;;5081404;28;20297;-82
2022/09/22 12:36:46;;;;;;;;;;;19.80;29.10;;;;;;5091110;28;19931;-80
2022/09/22 12:39:16;;;;;;;;;;;19.60;29.30;;;;;;5089525;28;19998;-81
2022/09/22 12:41:47;;;;;;;;;;;19.80;29.80;;;;;;5088827;28;19924;-79
2022/09/22 12:44:17;;;;;;;;;;;19.80;29.80;;;;;;5078901;28;20322;-81
2022/09/22 12:46:45;;;;;;;;;;;19.90;29.90;;;;;;5082233;28;19989;-78
2022/09/22 12:49:14;;;;;;;;;;;20.00;30.30;;;;;;5077102;28;20398;-80
2022/09/22 12:51:41;;;;;;;;;;;20.10;31.00;;;;;;5089805;28;19931;-80
2022/09/22 12:54:27;;;;;;;;;;;20.10;30.50;;;;;;5090945;28;20446;-79
2022/09/22 12:56:55;;;;;;;;;;;20.10;30.00;;;;;;5084119;28;19932;-77
2022/09/22 12:59:40;;;;;;;;;;;20.10;29.40;;;;;;5076170;28;19930;-80
2022/09/22 13:02:27;;;;;;;;;;;20.10;30.70;;;;;;5082851;28;19925;-74
2022/09/22 13:05:12;;;;;;;;;;;20.30;29.50;;;;;;5085344;28;19967;-73
2022/09/22 13:07:40;;;;;;;;;;;20.10;28.70;;;;;;5076498;28;20583;-73
2022/09/22 13:10:25;;;;;;;;;;;20.10;28.70;;;;;;5081946;28;19924;-74
2022/09/22 13:13:11;;;;;;;;;;;20.10;28.40;;;;;;5089858;28;19965;-74
2022/09/22 13:15:52;;;;;;;;;;;20.20;28.40;;;;;;5082794;28;19947;-73
2022/09/22 13:18:30;;;;;;;;;;;20.10;28.60;;;;;;5081023;28;19939;-74
2022/09/22 13:20:57;;;;;;;;;;;20.20;28.90;;;;;;5075401;28;20347;-75
2022/09/22 13:23:25;;;;;;;;;;;20.10;29.30;;;;;;5071919;28;19924;-73
2022/09/22 13:25:51;;;;;;;;;;;20.30;29.00;;;;;;5081302;28;19932;-73
2022/09/22 13:28:19;;;;;;;;;;;20.20;27.80;;;;;;5083459;28;19925;-79
2022/09/22 13:30:47;;;;;;;;;;;20.40;28.50;;;;;;5073006;28;19978;-79
2022/09/22 13:33:21;;;;;;;;;;;20.60;27.90;;;;;;5074551;28;19987;-80
2022/09/22 13:35:53;;;;;;;;;;;20.50;28.20;;;;;;5077962;28;19925;-79
2022/09/22 13:38:20;;;;;;;;;;;20.40;28.50;;;;;;5085412;28;20027;-79
2022/09/22 13:40:48;;;;;;;;;;;20.50;28.90;;;;;;5071760;28;19928;-80
2022/09/22 13:43:20;;;;;;;;;;;20.60;27.00;;;;;;5075180;28;20247;-79
2022/09/22 13:45:47;;;;;;;;;;;20.70;27.50;;;;;;5083451;28;19925;-81
2022/09/22 13:48:15;;;;;;;;;;;20.50;27.40;;;;;;5077692;28;19930;-80
2022/09/22 13:50:48;;;;;;;;;;;20.20;29.00;;;;;;5071906;28;20023;-80
2022/09/22 13:53:17;;;;;;;;;;;20.20;28.80;;;;;;5086286;28;20356;-77
2022/09/22 13:55:46;;;;;;;;;;;20.50;28.70;;;;;;5073321;28;19931;-76
2022/09/22 13:58:15;;;;;;;;;;;20.80;28.70;;;;;;5071247;28;20142;-79
2022/09/22 14:00:46;;;;;;;;;;;20.90;28.10;;;;;;5076193;28;19924;-80
2022/09/22 14:03:17;;;;;;;;;;;21.00;27.50;;;;;;5078696;28;19946;-78
2022/09/22 14:05:44;;;;;;;;;;;21.00;27.40;;;;;;5083824;28;20287;-78
2022/09/22 14:08:14;;;;;;;;;;;20.60;29.10;;;;;;5077403;28;19924;-80
2022/09/22 14:10:43;;;;;;;;;;;20.80;27.90;;;;;;5086670;28;19931;-77
2022/09/22 14:13:24;;;;;;;;;;;20.60;27.40;;;;;;5089188;28;19924;-79
2022/09/22 14:15:51;;;;;;;;;;;20.60;27.40;;;;;;5083826;28;19931;-78
2022/09/22 14:18:21;;;;;;;;;;;20.70;27.60;;;;;;5072386;28;19928;-76
2022/09/22 14:20:48;;;;;;;;;;;20.70;27.50;;;;;;5083721;28;19962;-80
2022/09/22 14:23:16;;;;;;;;;;;20.60;27.40;;;;;;5072844;28;19933;-81
2022/09/22 14:25:44;;;;;;;;;;;20.80;27.90;;;;;;5086780;28;19924;-82
2022/09/22 14:28:17;;;;;;;;;;;20.70;27.10;;;;;;5078815;28;20024;-80
2022/09/22 14:30:44;;;;;;;;;;;20.60;26.70;;;;;;5083427;28;20463;-78
2022/09/22 14:33:14;;;;;;;;;;;20.40;27.00;;;;;;5080470;28;19963;-78
2022/09/22 14:35:41;;;;;;;;;;;20.30;26.70;;;;;;5080564;28;19928;-77
2022/09/22 14:38:08;;;;;;;;;;;20.10;26.70;;;;;;5069858;28;20039;-77
2022/09/22 14:40:37;;;;;;;;;;;20.10;27.00;;;;;;5082262;28;19939;-76
2022/09/22 14:43:07;;;;;;;;;;;20.20;27.90;;;;;;5069625;28;19925;-76
2022/09/22 14:45:35;;;;;;;;;;;20.40;27.60;;;;;;5082828;28;19934;-77
2022/09/22 14:48:18;;;;;;;;;;;20.30;27.10;;;;;;5070265;28;20330;-76
2022/09/22 14:50:46;;;;;;;;;;;20.40;28.10;;;;;;5083540;28;19968;-77
2022/09/22 14:53:16;;;;;;;;;;;20.30;28.30;;;;;;5081310;28;20401;-78